PRIVATE WETTERSTATION BILLIGHEIM-ALLFELD                       ZURCK
Wetterdaten: Mittwoch, 06.09.2017
Datum Zeit Temp. A. Temp. A. min Temp. A. max Feuchte A. Luftdruck Regen Wind Richtung Richtung Sonnenschein ET Solar Taupunkt Windchill Windben Empfang
06.09.2017 00:00 19,2 C 18,9 C 19,2 C 81 % 1016,4 hPa 0,0 l/m 4,8 km/h (1 Bft) S-SO 157 0 min 0,025 mm 0 W/m 15,9 C 19,2 C 8,0 km/h (2 Bft) 100 %
06.09.2017 00:10 19,3 C 19,2 C 19,3 C 80 % 1016,3 hPa 0,0 l/m 3,2 km/h (1 Bft) S-SO 157 0 min 0,000 mm 0 W/m 15,8 C 19,3 C 8,0 km/h (2 Bft) 100 %
06.09.2017 00:20 19,3 C 19,3 C 19,3 C 82 % 1016,7 hPa 0,2 l/m 3,2 km/h (1 Bft) S-SO 157 0 min 0,000 mm 0 W/m 16,1 C 19,3 C 6,4 km/h (2 Bft) 100 %
06.09.2017 00:30 18,9 C 18,9 C 19,3 C 85 % 1016,6 hPa 0,4 l/m 1,6 km/h (1 Bft) SW 225 0 min 0,000 mm 0 W/m 16,3 C 18,9 C 9,7 km/h (2 Bft) 99 %
06.09.2017 00:40 18,4 C 18,4 C 18,8 C 87 % 1016,4 hPa 0,0 l/m 0,0 km/h (0 Bft) S-SW 202 0 min 0,000 mm 0 W/m 16,2 C 18,4 C 3,2 km/h (1 Bft) 100 %
06.09.2017 00:50 18,1 C 18,1 C 18,4 C 88 % 1016,7 hPa 0,0 l/m 0,0 km/h (0 Bft) SW 225 0 min 0,000 mm 0 W/m 16,1 C 18,1 C 4,8 km/h (1 Bft) 100 %
06.09.2017 01:00 17,9 C 17,9 C 18,1 C 88 % 1016,8 hPa 0,2 l/m 3,2 km/h (1 Bft) SW 225 0 min 0,025 mm 0 W/m 15,9 C 17,9 C 11,3 km/h (2 Bft) 100 %
06.09.2017 01:10 17,7 C 17,7 C 17,8 C 88 % 1016,6 hPa 0,6 l/m 3,2 km/h (1 Bft) W-NW 292 0 min 0,000 mm 0 W/m 15,7 C 17,7 C 8,0 km/h (2 Bft) 100 %
06.09.2017 01:20 17,7 C 17,7 C 17,8 C 88 % 1016,2 hPa 0,0 l/m 0,0 km/h (0 Bft) W-NW 292 0 min 0,000 mm 0 W/m 15,7 C 17,7 C 3,2 km/h (1 Bft) 100 %
06.09.2017 01:30 17,6 C 17,6 C 17,7 C 88 % 1016,1 hPa 0,0 l/m 0,0 km/h (0 Bft) N 0 0 min 0,000 mm 0 W/m 15,6 C 17,6 C 0,0 km/h (0 Bft) 100 %
06.09.2017 01:40 17,5 C 17,4 C 17,6 C 88 % 1016,2 hPa 0,0 l/m 0,0 km/h (0 Bft) W-NW 292 0 min 0,000 mm 0 W/m 15,5 C 17,5 C 1,6 km/h (1 Bft) 100 %
06.09.2017 01:50 17,4 C 17,4 C 17,5 C 88 % 1016,1 hPa 0,0 l/m 0,0 km/h (0 Bft) N 0 0 min 0,000 mm 0 W/m 15,4 C 17,4 C 0,0 km/h (0 Bft) 100 %
06.09.2017 02:00 17,4 C 17,4 C 17,4 C 88 % 1016,1 hPa 0,0 l/m 0,0 km/h (0 Bft) N 0 0 min 0,000 mm 0 W/m 15,4 C 17,4 C 0,0 km/h (0 Bft) 100 %
06.09.2017 02:10 17,3 C 17,3 C 17,4 C 88 % 1016,1 hPa 0,0 l/m 1,6 km/h (1 Bft) W-NW 292 0 min 0,000 mm 0 W/m 15,3 C 17,3 C 6,4 km/h (2 Bft) 100 %
06.09.2017 02:20 17,3 C 17,3 C 17,3 C 88 % 1016,0 hPa 0,0 l/m 3,2 km/h (1 Bft) W 270 0 min 0,000 mm 0 W/m 15,3 C 17,3 C 6,4 km/h (2 Bft) 100 %
06.09.2017 02:30 17,2 C 17,2 C 17,2 C 88 % 1016,0 hPa 0,0 l/m 4,8 km/h (1 Bft) S-SW 202 0 min 0,000 mm 0 W/m 15,2 C 17,2 C 6,4 km/h (2 Bft) 100 %
06.09.2017 02:40 17,1 C 17,1 C 17,2 C 88 % 1016,0 hPa 0,0 l/m 3,2 km/h (1 Bft) S-SW 202 0 min 0,000 mm 0 W/m 15,1 C 17,1 C 6,4 km/h (2 Bft) 100 %
06.09.2017 02:50 17,0 C 17,0 C 17,1 C 88 % 1015,8 hPa 0,0 l/m 4,8 km/h (1 Bft) S-SO 157 0 min 0,000 mm 0 W/m 15,0 C 17,0 C 6,4 km/h (2 Bft) 100 %
06.09.2017 03:00 17,1 C 17,0 C 17,1 C 89 % 1015,8 hPa 0,0 l/m 3,2 km/h (1 Bft) S-SO 157 0 min 0,025 mm 0 W/m 15,3 C 17,1 C 8,0 km/h (2 Bft) 100 %
06.09.2017 03:10 17,0 C 17,0 C 17,0 C 88 % 1015,9 hPa 0,0 l/m 3,2 km/h (1 Bft) S-SO 157 0 min 0,000 mm 0 W/m 15,0 C 17,0 C 8,0 km/h (2 Bft) 99 %
06.09.2017 03:20 16,9 C 16,9 C 16,9 C 88 % 1015,8 hPa 0,0 l/m 3,2 km/h (1 Bft) S 180 0 min 0,000 mm 0 W/m 14,9 C 16,9 C 8,0 km/h (2 Bft) 100 %
06.09.2017 03:30 16,9 C 16,9 C 16,9 C 88 % 1015,8 hPa 0,0 l/m 1,6 km/h (1 Bft) S 180 0 min 0,000 mm 0 W/m 14,9 C 16,9 C 6,4 km/h (2 Bft) 100 %
06.09.2017 03:40 16,9 C 16,9 C 16,9 C 88 % 1015,8 hPa 0,0 l/m 3,2 km/h (1 Bft) S 180 0 min 0,000 mm 0 W/m 14,9 C 16,9 C 6,4 km/h (2 Bft) 91 %
06.09.2017 03:50 16,8 C 16,8 C 16,9 C 89 % 1015,8 hPa 0,0 l/m 1,6 km/h (1 Bft) S 180 0 min 0,000 mm 0 W/m 15,0 C 16,8 C 4,8 km/h (1 Bft) 100 %
06.09.2017 04:00 16,8 C 16,8 C 16,8 C 89 % 1015,7 hPa 0,0 l/m 0,0 km/h (0 Bft) S 180 0 min 0,000 mm 0 W/m 15,0 C 16,8 C 4,8 km/h (1 Bft) 100 %
06.09.2017 04:10 16,8 C 16,8 C 16,8 C 89 % 1015,7 hPa 0,0 l/m 0,0 km/h (0 Bft) N 0 0 min 0,000 mm 0 W/m 15,0 C 16,8 C 0,0 km/h (0 Bft) 100 %
06.09.2017 04:20 16,8 C 16,8 C 16,8 C 89 % 1015,6 hPa 0,0 l/m 0,0 km/h (0 Bft) N 0 0 min 0,000 mm 0 W/m 15,0 C 16,8 C 0,0 km/h (0 Bft) 100 %
06.09.2017 04:30 16,8 C 16,8 C 16,9 C 89 % 1015,4 hPa 0,0 l/m 0,0 km/h (0 Bft) N 0 0 min 0,000 mm 0 W/m 15,0 C 16,8 C 0,0 km/h (0 Bft) 100 %
06.09.2017 04:40 16,8 C 16,8 C 16,8 C 89 % 1015,2 hPa 0,0 l/m 0,0 km/h (0 Bft) N 0 0 min 0,000 mm 0 W/m 15,0 C 16,8 C 0,0 km/h (0 Bft) 100 %
06.09.2017 04:50 16,7 C 16,7 C 16,8 C 89 % 1015,2 hPa 0,0 l/m 1,6 km/h (1 Bft) S 180 0 min 0,000 mm 0 W/m 14,9 C 16,7 C 4,8 km/h (1 Bft) 100 %
06.09.2017 05:00 16,8 C 16,7 C 16,8 C 89 % 1015,1 hPa 0,0 l/m 1,6 km/h (1 Bft) S 180 0 min 0,000 mm 0 W/m 15,0 C 16,8 C 4,8 km/h (1 Bft) 100 %
06.09.2017 05:10 16,8 C 16,8 C 16,8 C 89 % 1015,3 hPa 0,0 l/m 1,6 km/h (1 Bft) S 180 0 min 0,000 mm 0 W/m 15,0 C 16,8 C 6,4 km/h (2 Bft) 100 %
06.09.2017 05:20 16,8 C 16,7 C 16,8 C 89 % 1015,4 hPa 0,0 l/m 1,6 km/h (1 Bft) S-SW 202 0 min 0,000 mm 0 W/m 15,0 C 16,8 C 6,4 km/h (2 Bft) 100 %
06.09.2017 05:30 16,7 C 16,7 C 16,8 C 89 % 1015,4 hPa 0,0 l/m 1,6 km/h (1 Bft) S-SW 202 0 min 0,000 mm 0 W/m 14,9 C 16,7 C 8,0 km/h (2 Bft) 100 %
06.09.2017 05:40 16,7 C 16,7 C 16,7 C 89 % 1015,2 hPa 0,0 l/m 3,2 km/h (1 Bft) W 270 0 min 0,000 mm 0 W/m 14,9 C 16,7 C 9,7 km/h (2 Bft) 100 %
06.09.2017 05:50 16,7 C 16,6 C 16,7 C 89 % 1015,2 hPa 0,0 l/m 3,2 km/h (1 Bft) W 270 0 min 0,000 mm 0 W/m 14,9 C 16,7 C 6,4 km/h (2 Bft) 100 %
06.09.2017 06:00 16,6 C 16,6 C 16,7 C 88 % 1015,1 hPa 0,0 l/m 0,0 km/h (0 Bft) W 270 0 min 0,000 mm 0 W/m 14,6 C 16,6 C 3,2 km/h (1 Bft) 99 %
06.09.2017 06:10 16,5 C 16,5 C 16,6 C 88 % 1015,0 hPa 0,0 l/m 1,6 km/h (1 Bft) W 270 0 min 0,000 mm 0 W/m 14,5 C 16,5 C 4,8 km/h (1 Bft) 100 %
06.09.2017 06:20 16,3 C 16,3 C 16,5 C 89 % 1015,0 hPa 0,0 l/m 3,2 km/h (1 Bft) W-SW 247 0 min 0,000 mm 0 W/m 14,5 C 16,3 C 6,4 km/h (2 Bft) 100 %
06.09.2017 06:30 16,3 C 16,2 C 16,3 C 89 % 1015,0 hPa 0,2 l/m 4,8 km/h (1 Bft) S-SW 202 0 min 0,000 mm 0 W/m 14,5 C 16,3 C 8,0 km/h (2 Bft) 100 %
06.09.2017 06:40 16,3 C 16,2 C 16,3 C 89 % 1015,0 hPa 0,0 l/m 4,8 km/h (1 Bft) SO 135 0 min 0,000 mm 0 W/m 14,5 C 16,3 C 8,0 km/h (2 Bft) 100 %
06.09.2017 06:50 16,3 C 16,3 C 16,3 C 89 % 1015,1 hPa 0,0 l/m 3,2 km/h (1 Bft) SO 135 0 min 0,000 mm 0 W/m 14,5 C 16,3 C 6,4 km/h (2 Bft) 100 %
06.09.2017 07:00 16,2 C 16,2 C 16,3 C 89 % 1015,0 hPa 0,0 l/m 3,2 km/h (1 Bft) S-SO 157 0 min 0,000 mm 9 W/m 14,4 C 16,2 C 6,4 km/h (2 Bft) 100 %
06.09.2017 07:10 16,1 C 16,1 C 16,2 C 89 % 1015,0 hPa 0,0 l/m 4,8 km/h (1 Bft) S-SO 157 0 min 0,000 mm 21 W/m 14,3 C 16,1 C 9,7 km/h (2 Bft) 100 %
06.09.2017 07:20 16,2 C 16,1 C 16,2 C 89 % 1015,0 hPa 0,0 l/m 4,8 km/h (1 Bft) S 180 0 min 0,000 mm 21 W/m 14,4 C 16,2 C 11,3 km/h (2 Bft) 100 %
06.09.2017 07:30 16,2 C 16,2 C 16,2 C 89 % 1015,2 hPa 0,0 l/m 4,8 km/h (1 Bft) S-SW 202 0 min 0,000 mm 25 W/m 14,4 C 16,2 C 11,3 km/h (2 Bft) 100 %
06.09.2017 07:40 16,3 C 16,2 C 16,3 C 89 % 1015,2 hPa 0,0 l/m 6,4 km/h (2 Bft) S 180 0 min 0,000 mm 39 W/m 14,5 C 16,3 C 16,1 km/h (3 Bft) 100 %
06.09.2017 07:50 16,4 C 16,3 C 16,4 C 89 % 1015,3 hPa 0,0 l/m 8,0 km/h (2 Bft) S-SW 202 0 min 0,000 mm 49 W/m 14,6 C 15,6 C 16,1 km/h (3 Bft) 100 %
06.09.2017 08:00 16,5 C 16,4 C 16,5 C 89 % 1015,4 hPa 0,0 l/m 9,7 km/h (2 Bft) S-SW 202 0 min 0,025 mm 47 W/m 14,7 C 14,9 C 19,3 km/h (3 Bft) 100 %
06.09.2017 08:10 16,6 C 16,5 C 16,6 C 89 % 1015,5 hPa 0,0 l/m 6,4 km/h (2 Bft) S-SW 202 0 min 0,000 mm 67 W/m 14,8 C 16,6 C 17,7 km/h (3 Bft) 100 %
06.09.2017 08:20 16,7 C 16,6 C 16,7 C 89 % 1015,5 hPa 0,0 l/m 8,0 km/h (2 Bft) S-SW 202 0 min 0,000 mm 97 W/m 14,9 C 15,9 C 17,7 km/h (3 Bft) 100 %
06.09.2017 08:30 16,8 C 16,7 C 16,8 C 89 % 1015,4 hPa 0,0 l/m 9,7 km/h (2 Bft) S-SW 202 0 min 0,000 mm 109 W/m 15,0 C 15,2 C 19,3 km/h (3 Bft) 100 %
06.09.2017 08:40 16,9 C 16,8 C 16,9 C 89 % 1015,5 hPa 0,0 l/m 9,7 km/h (2 Bft) S-SW 202 0 min 0,000 mm 105 W/m 15,1 C 15,3 C 22,5 km/h (4 Bft) 100 %
06.09.2017 08:50 17,1 C 16,9 C 17,1 C 91 % 1015,4 hPa 0,0 l/m 8,0 km/h (2 Bft) S-SW 202 10 min 0,000 mm 274 W/m 15,6 C 16,3 C 19,3 km/h (3 Bft) 100 %
06.09.2017 09:00 17,3 C 17,1 C 17,3 C 89 % 1015,5 hPa 0,0 l/m 4,8 km/h (1 Bft) SW 225 10 min 0,076 mm 278 W/m 15,5 C 17,3 C 16,1 km/h (3 Bft) 100 %
06.09.2017 09:10 17,4 C 17,3 C 17,4 C 89 % 1015,5 hPa 0,0 l/m 8,0 km/h (2 Bft) SW 225 10 min 0,000 mm 195 W/m 15,6 C 16,6 C 19,3 km/h (3 Bft) 100 %
06.09.2017 09:20 17,6 C 17,4 C 17,6 C 89 % 1015,5 hPa 0,0 l/m 8,0 km/h (2 Bft) SW 225 10 min 0,000 mm 299 W/m 15,8 C 16,8 C 17,7 km/h (3 Bft) 100 %
06.09.2017 09:30 17,6 C 17,6 C 17,6 C 89 % 1015,4 hPa 0,0 l/m 11,3 km/h (2 Bft) SW 225 10 min 0,000 mm 199 W/m 15,8 C 15,5 C 22,5 km/h (4 Bft) 100 %
06.09.2017 09:40 17,5 C 17,4 C 17,6 C 88 % 1015,3 hPa 0,0 l/m 11,3 km/h (2 Bft) SW 225 0 min 0,000 mm 123 W/m 15,5 C 15,4 C 22,5 km/h (4 Bft) 100 %
06.09.2017 09:50 17,5 C 17,5 C 17,5 C 88 % 1015,4 hPa 0,0 l/m 11,3 km/h (2 Bft) SW 225 0 min 0,000 mm 151 W/m 15,5 C 15,4 C 29,0 km/h (5 Bft) 98 %
06.09.2017 10:00 17,6 C 17,5 C 17,6 C 88 % 1015,5 hPa 0,0 l/m 8,0 km/h (2 Bft) SW 225 0 min 0,076 mm 104 W/m 15,6 C 16,8 C 24,1 km/h (4 Bft) 98 %
06.09.2017 10:10 17,5 C 17,5 C 17,6 C 88 % 1015,5 hPa 0,0 l/m 9,7 km/h (2 Bft) W-SW 247 0 min 0,000 mm 127 W/m 15,5 C 16,0 C 19,3 km/h (3 Bft) 87 %
06.09.2017 10:20 17,6 C 17,5 C 17,6 C 88 % 1015,5 hPa 0,0 l/m 6,4 km/h (2 Bft) SW 225 0 min 0,000 mm 105 W/m 15,6 C 17,6 C 16,1 km/h (3 Bft) 99 %
06.09.2017 10:30 17,6 C 17,6 C 17,6 C 87 % 1015,6 hPa 0,0 l/m 6,4 km/h (2 Bft) SW 225 0 min 0,000 mm 116 W/m 15,4 C 17,6 C 17,7 km/h (3 Bft) 98 %
06.09.2017 10:40 17,6 C 17,6 C 17,6 C 87 % 1015,6 hPa 0,0 l/m 6,4 km/h (2 Bft) SW 225 10 min 0,000 mm 171 W/m 15,4 C 17,6 C 22,5 km/h (4 Bft) 98 %
06.09.2017 10:50 17,8 C 17,6 C 17,8 C 87 % 1015,4 hPa 0,0 l/m 8,0 km/h (2 Bft) SW 225 10 min 0,000 mm 202 W/m 15,6 C 17,0 C 19,3 km/h (3 Bft) 97 %
06.09.2017 11:00 17,9 C 17,8 C 17,9 C 86 % 1015,4 hPa 0,0 l/m 11,3 km/h (2 Bft) SW 225 10 min 0,076 mm 171 W/m 15,5 C 15,8 C 25,7 km/h (4 Bft) 98 %
06.09.2017 11:10 18,1 C 17,9 C 18,1 C 84 % 1015,4 hPa 0,0 l/m 11,3 km/h (2 Bft) SW 225 10 min 0,000 mm 211 W/m 15,4 C 16,1 C 30,6 km/h (5 Bft) 97 %
06.09.2017 11:20 18,2 C 18,1 C 18,2 C 84 % 1015,4 hPa 0,0 l/m 9,7 km/h (2 Bft) W-SW 247 10 min 0,000 mm 200 W/m 15,4 C 16,8 C 24,1 km/h (4 Bft) 98 %
06.09.2017 11:30 18,4 C 18,2 C 18,4 C 84 % 1015,3 hPa 0,0 l/m 9,7 km/h (2 Bft) W-SW 247 10 min 0,000 mm 221 W/m 15,6 C 17,0 C 24,1 km/h (4 Bft) 98 %
06.09.2017 11:40 18,5 C 18,4 C 18,5 C 86 % 1015,1 hPa 0,0 l/m 8,0 km/h (2 Bft) W-SW 247 10 min 0,000 mm 381 W/m 16,1 C 17,8 C 19,3 km/h (3 Bft) 97 %
06.09.2017 11:50 18,7 C 18,5 C 18,7 C 83 % 1015,1 hPa 0,0 l/m 9,7 km/h (2 Bft) W-SW 247 10 min 0,000 mm 244 W/m 15,8 C 17,3 C 25,7 km/h (4 Bft) 98 %
06.09.2017 12:00 19,0 C 18,7 C 19,0 C 82 % 1015,1 hPa 0,0 l/m 11,3 km/h (2 Bft) W-SW 247 10 min 0,152 mm 654 W/m 15,9 C 17,1 C 33,8 km/h (5 Bft) 97 %
06.09.2017 12:10 19,4 C 19,0 C 19,4 C 81 % 1015,1 hPa 0,0 l/m 14,5 km/h (3 Bft) W-SW 247 10 min 0,000 mm 795 W/m 16,1 C 16,6 C 33,8 km/h (5 Bft) 98 %
06.09.2017 12:20 19,7 C 19,4 C 19,7 C 79 % 1015,0 hPa 0,0 l/m 11,3 km/h (2 Bft) W-SW 247 10 min 0,000 mm 438 W/m 16,0 C 17,9 C 27,4 km/h (4 Bft) 97 %
06.09.2017 12:30 19,7 C 19,7 C 19,7 C 77 % 1015,0 hPa 0,0 l/m 16,1 km/h (3 Bft) W-SW 247 10 min 0,000 mm 443 W/m 15,5 C 16,6 C 30,6 km/h (5 Bft) 97 %
06.09.2017 12:40 20,2 C 19,7 C 20,2 C 80 % 1014,9 hPa 0,0 l/m 12,9 km/h (3 Bft) W-SW 247 10 min 0,000 mm 856 W/m 16,6 C 18,0 C 27,4 km/h (4 Bft) 98 %
06.09.2017 12:50 21,1 C 20,2 C 21,1 C 75 % 1014,7 hPa 0,0 l/m 16,1 km/h (3 Bft) W-SW 247 10 min 0,000 mm 925 W/m 16,5 C 18,4 C 30,6 km/h (5 Bft) 97 %
06.09.2017 13:00 21,4 C 21,1 C 21,4 C 70 % 1014,7 hPa 0,0 l/m 16,1 km/h (3 Bft) W 270 10 min 0,356 mm 1007 W/m 15,7 C 18,7 C 41,8 km/h (6 Bft) 97 %
06.09.2017 13:10 21,7 C 21,4 C 21,7 C 68 % 1014,9 hPa 0,0 l/m 16,1 km/h (3 Bft) W 270 10 min 0,000 mm 998 W/m 15,5 C 19,1 C 38,6 km/h (5 Bft) 96 %
06.09.2017 13:20 21,8 C 21,6 C 21,8 C 69 % 1014,8 hPa 0,0 l/m 16,1 km/h (3 Bft) W-SW 247 10 min 0,000 mm 858 W/m 15,9 C 19,2 C 32,2 km/h (5 Bft) 97 %
06.09.2017 13:30 21,5 C 21,5 C 21,8 C 70 % 1014,7 hPa 0,0 l/m 14,5 km/h (3 Bft) W 270 10 min 0,000 mm 979 W/m 15,8 C 19,2 C 32,2 km/h (5 Bft) 98 %
06.09.2017 13:40 21,4 C 21,4 C 21,6 C 67 % 1014,9 hPa 0,0 l/m 16,1 km/h (3 Bft) W 270 10 min 0,000 mm 1035 W/m 15,0 C 18,7 C 35,4 km/h (5 Bft) 98 %
06.09.2017 13:50 21,5 C 21,4 C 21,6 C 65 % 1014,9 hPa 0,0 l/m 19,3 km/h (3 Bft) W-SW 247 10 min 0,000 mm 1042 W/m 14,6 C 18,3 C 41,8 km/h (6 Bft) 98 %
06.09.2017 14:00 21,3 C 21,3 C 21,6 C 65 % 1015,0 hPa 0,0 l/m 20,9 km/h (4 Bft) W 270 10 min 0,432 mm 909 W/m 14,4 C 17,7 C 45,1 km/h (6 Bft) 98 %
06.09.2017 14:10 20,9 C 20,9 C 21,3 C 62 % 1014,9 hPa 0,0 l/m 19,3 km/h (3 Bft) W 270 10 min 0,000 mm 861 W/m 13,3 C 17,5 C 45,1 km/h (6 Bft) 97 %
06.09.2017 14:20 21,0 C 20,9 C 21,1 C 62 % 1014,8 hPa 0,0 l/m 17,7 km/h (3 Bft) W-SW 247 10 min 0,000 mm 772 W/m 13,4 C 17,9 C 40,2 km/h (6 Bft) 97 %
06.09.2017 14:30 21,1 C 21,1 C 21,2 C 60 % 1014,9 hPa 0,0 l/m 22,5 km/h (4 Bft) W 270 10 min 0,000 mm 737 W/m 13,0 C 17,2 C 49,9 km/h (6 Bft) 98 %
06.09.2017 14:40 21,4 C 21,1 C 21,4 C 62 % 1014,8 hPa 0,0 l/m 14,5 km/h (3 Bft) W 270 10 min 0,000 mm 729 W/m 13,8 C 19,1 C 33,8 km/h (5 Bft) 97 %
06.09.2017 14:50 21,6 C 21,4 C 21,6 C 58 % 1014,9 hPa 0,0 l/m 17,7 km/h (3 Bft) W 270 10 min 0,000 mm 745 W/m 13,0 C 18,7 C 41,8 km/h (6 Bft) 97 %
06.09.2017 15:00 21,7 C 21,6 C 21,8 C 56 % 1015,0 hPa 0,0 l/m 16,1 km/h (3 Bft) W 270 10 min 0,533 mm 751 W/m 12,5 C 19,1 C 41,8 km/h (6 Bft) 98 %
06.09.2017 15:10 21,6 C 21,6 C 21,8 C 57 % 1014,9 hPa 0,0 l/m 20,9 km/h (4 Bft) W-SW 247 10 min 0,000 mm 726 W/m 12,7 C 18,1 C 40,2 km/h (6 Bft) 98 %
06.09.2017 15:20 21,3 C 21,3 C 21,6 C 54 % 1014,8 hPa 0,0 l/m 20,9 km/h (4 Bft) W 270 10 min 0,000 mm 693 W/m 11,6 C 17,7 C 41,8 km/h (6 Bft) 98 %
06.09.2017 15:30 21,3 C 21,2 C 21,3 C 54 % 1015,1 hPa 0,0 l/m 12,9 km/h (3 Bft) W 270 10 min 0,000 mm 708 W/m 11,6 C 19,3 C 38,6 km/h (5 Bft) 98 %
06.09.2017 15:40 21,3 C 21,3 C 21,4 C 55 % 1015,1 hPa 0,0 l/m 17,7 km/h (3 Bft) W 270 10 min 0,000 mm 666 W/m 11,9 C 18,3 C 33,8 km/h (5 Bft) 98 %
06.09.2017 15:50 21,3 C 21,3 C 21,3 C 55 % 1014,9 hPa 0,0 l/m 16,1 km/h (3 Bft) W 270 10 min 0,000 mm 673 W/m 11,9 C 18,6 C 35,4 km/h (5 Bft) 98 %
06.09.2017 16:00 21,2 C 21,2 C 21,3 C 54 % 1015,1 hPa 0,0 l/m 17,7 km/h (3 Bft) W 270 10 min 0,483 mm 608 W/m 11,5 C 18,2 C 37,0 km/h (5 Bft) 97 %
06.09.2017 16:10 20,9 C 20,9 C 21,1 C 54 % 1015,1 hPa 0,0 l/m 16,1 km/h (3 Bft) W 270 10 min 0,000 mm 573 W/m 11,2 C 18,1 C 35,4 km/h (5 Bft) 98 %
06.09.2017 16:20 20,4 C 20,4 C 20,9 C 57 % 1015,2 hPa 0,0 l/m 19,3 km/h (3 Bft) W 270 10 min 0,000 mm 526 W/m 11,6 C 16,8 C 35,4 km/h (5 Bft) 98 %
06.09.2017 16:30 20,6 C 20,4 C 20,6 C 58 % 1015,2 hPa 0,0 l/m 19,3 km/h (3 Bft) W-NW 292 10 min 0,000 mm 526 W/m 12,0 C 17,1 C 37,0 km/h (5 Bft) 98 %
06.09.2017 16:40 20,7 C 20,6 C 20,7 C 58 % 1015,2 hPa 0,0 l/m 16,1 km/h (3 Bft) W 270 0 min 0,000 mm 141 W/m 12,1 C 17,9 C 37,0 km/h (5 Bft) 98 %
06.09.2017 16:50 20,7 C 20,7 C 20,7 C 57 % 1015,4 hPa 0,0 l/m 17,7 km/h (3 Bft) W 270 0 min 0,000 mm 141 W/m 11,9 C 17,5 C 38,6 km/h (5 Bft) 98 %
06.09.2017 17:00 20,5 C 20,5 C 20,7 C 59 % 1015,4 hPa 0,0 l/m 16,1 km/h (3 Bft) W 270 10 min 0,254 mm 200 W/m 12,2 C 17,6 C 32,2 km/h (5 Bft) 98 %
06.09.2017 17:10 19,9 C 19,9 C 20,5 C 56 % 1015,5 hPa 0,0 l/m 17,7 km/h (3 Bft) W-NW 292 10 min 0,000 mm 156 W/m 10,9 C 16,5 C 43,5 km/h (6 Bft) 97 %
06.09.2017 17:20 19,4 C 19,4 C 19,9 C 57 % 1015,5 hPa 0,0 l/m 14,5 km/h (3 Bft) W 270 10 min 0,000 mm 156 W/m 10,7 C 16,6 C 37,0 km/h (5 Bft) 98 %
06.09.2017 17:30 19,3 C 19,3 C 19,4 C 58 % 1015,6 hPa 0,0 l/m 17,7 km/h (3 Bft) W-NW 292 10 min 0,000 mm 190 W/m 10,8 C 15,8 C 40,2 km/h (6 Bft) 98 %
06.09.2017 17:40 19,2 C 19,2 C 19,3 C 59 % 1015,6 hPa 0,0 l/m 12,9 km/h (3 Bft) W 270 0 min 0,000 mm 120 W/m 11,0 C 16,8 C 30,6 km/h (5 Bft) 97 %
06.09.2017 18:00 18,9 C 18,9 C 19,3 C 57 % 1015,6 hPa 0,0 l/m 14,4 km/h (3 Bft) NW 311 0 min 0,129 mm 74 W/m 10,2 C 16,1 C 33,8 km/h (5 Bft) 100 %
06.09.2017 18:10 18,6 C 18,6 C 18,9 C 58 % 1015,8 hPa 0,0 l/m 13,7 km/h (3 Bft) W-SW 250 0 min 0,000 mm 62 W/m 10,2 C 15,9 C 35,4 km/h (5 Bft) 100 %
06.09.2017 18:20 18,2 C 18,2 C 18,6 C 58 % 1015,7 hPa 0,0 l/m 13,1 km/h (3 Bft) W-NW 302 0 min 0,000 mm 51 W/m 9,8 C 15,6 C 29,0 km/h (5 Bft) 100 %
06.09.2017 18:30 17,8 C 17,8 C 18,2 C 59 % 1015,8 hPa 0,0 l/m 17,2 km/h (3 Bft) W-NW 285 0 min 0,000 mm 54 W/m 9,7 C 14,0 C 33,8 km/h (5 Bft) 100 %
06.09.2017 18:40 17,5 C 17,5 C 17,8 C 60 % 1015,8 hPa 0,0 l/m 13,7 km/h (3 Bft) W-NW 285 0 min 0,000 mm 60 W/m 9,6 C 14,6 C 32,2 km/h (5 Bft) 100 %
06.09.2017 18:50 17,3 C 17,3 C 17,5 C 61 % 1016,0 hPa 0,0 l/m 10,7 km/h (2 Bft) NW 308 0 min 0,000 mm 62 W/m 9,7 C 15,4 C 29,0 km/h (5 Bft) 100 %
06.09.2017 19:00 17,2 C 17,2 C 17,3 C 60 % 1016,1 hPa 0,0 l/m 14,7 km/h (3 Bft) W-NW 289 0 min 0,102 mm 62 W/m 9,4 C 13,9 C 35,4 km/h (5 Bft) 100 %
06.09.2017 19:10 17,0 C 17,0 C 17,2 C 60 % 1016,2 hPa 0,0 l/m 10,8 km/h (2 Bft) W-NW 282 0 min 0,000 mm 44 W/m 9,2 C 15,0 C 32,2 km/h (5 Bft) 100 %
06.09.2017 19:20 16,8 C 16,8 C 17,0 C 62 % 1016,2 hPa 0,0 l/m 10,5 km/h (2 Bft) W 265 0 min 0,000 mm 30 W/m 9,5 C 14,9 C 25,7 km/h (4 Bft) 100 %
06.09.2017 19:30 16,6 C 16,6 C 16,8 C 62 % 1016,3 hPa 0,0 l/m 6,1 km/h (2 Bft) W-NW 299 0 min 0,000 mm 21 W/m 9,3 C 16,6 C 20,9 km/h (4 Bft) 100 %
06.09.2017 19:40 16,4 C 16,4 C 16,6 C 63 % 1016,3 hPa 0,0 l/m 4,9 km/h (1 Bft) W 261 0 min 0,000 mm 11 W/m 9,3 C 16,4 C 16,1 km/h (3 Bft) 100 %
06.09.2017 19:50 16,1 C 16,1 C 16,4 C 63 % 1016,5 hPa 0,0 l/m 9,4 km/h (2 Bft) W-NW 302 0 min 0,000 mm 0 W/m 9,1 C 14,6 C 19,3 km/h (3 Bft) 100 %
06.09.2017 20:00 15,9 C 15,9 C 16,1 C 64 % 1016,5 hPa 0,0 l/m 8,4 km/h (2 Bft) W-NW 288 0 min 0,000 mm 0 W/m 9,1 C 14,8 C 19,3 km/h (3 Bft) 100 %
06.09.2017 20:10 15,8 C 15,8 C 15,9 C 64 % 1016,7 hPa 0,0 l/m 6,2 km/h (2 Bft) SW 232 0 min 0,050 mm 0 W/m 9,0 C 15,8 C 16,1 km/h (3 Bft) 100 %
06.09.2017 20:20 15,6 C 15,6 C 15,8 C 64 % 1016,8 hPa 0,0 l/m 5,3 km/h (1 Bft) W-NW 287 0 min 0,000 mm 0 W/m 8,8 C 15,6 C 16,1 km/h (3 Bft) 100 %
06.09.2017 20:30 15,4 C 15,4 C 15,6 C 65 % 1016,9 hPa 0,0 l/m 4,9 km/h (1 Bft) W-SW 258 0 min 0,000 mm 0 W/m 8,9 C 15,4 C 16,1 km/h (3 Bft) 100 %
06.09.2017 20:40 15,5 C 15,4 C 15,5 C 64 % 1017,0 hPa 0,0 l/m 8,2 km/h (2 Bft) W-NW 300 0 min 0,000 mm 0 W/m 8,7 C 14,5 C 25,7 km/h (4 Bft) 100 %
06.09.2017 20:50 15,5 C 15,5 C 15,6 C 65 % 1017,0 hPa 0,0 l/m 4,3 km/h (1 Bft) W-NW 296 0 min 0,000 mm 0 W/m 8,9 C 15,5 C 11,3 km/h (2 Bft) 100 %
06.09.2017 21:00 15,5 C 15,5 C 15,5 C 65 % 1017,1 hPa 0,0 l/m 7,5 km/h (2 Bft) W-NW 303 0 min 0,026 mm 0 W/m 8,9 C 14,9 C 17,7 km/h (3 Bft) 100 %
06.09.2017 21:10 15,5 C 15,5 C 15,6 C 66 % 1017,1 hPa 0,0 l/m 9,7 km/h (2 Bft) W-NW 292 0 min 0,000 mm 0 W/m 9,2 C 13,8 C 20,9 km/h (4 Bft) 98 %
06.09.2017 21:20 15,4 C 15,4 C 15,5 C 66 % 1017,3 hPa 0,0 l/m 12,9 km/h (3 Bft) W-NW 292 0 min 0,000 mm 0 W/m 9,1 C 12,4 C 24,1 km/h (4 Bft) 97 %
06.09.2017 21:30 15,2 C 15,2 C 15,4 C 70 % 1017,5 hPa 0,0 l/m 14,5 km/h (3 Bft) W-NW 292 0 min 0,000 mm 0 W/m 9,8 C 11,6 C 29,0 km/h (5 Bft) 98 %
06.09.2017 21:40 14,9 C 14,9 C 15,1 C 72 % 1017,4 hPa 0,0 l/m 14,5 km/h (3 Bft) NW 315 0 min 0,000 mm 0 W/m 9,9 C 11,2 C 29,0 km/h (5 Bft) 97 %
06.09.2017 21:50 14,6 C 14,6 C 14,9 C 75 % 1017,3 hPa 0,0 l/m 16,1 km/h (3 Bft) NW 315 0 min 0,000 mm 0 W/m 10,2 C 10,3 C 32,2 km/h (5 Bft) 97 %
06.09.2017 22:00 14,2 C 14,2 C 14,6 C 79 % 1017,2 hPa 0,0 l/m 12,9 km/h (3 Bft) W-NW 292 0 min 0,051 mm 0 W/m 10,6 C 11,0 C 27,4 km/h (4 Bft) 98 %
06.09.2017 22:10 13,7 C 13,7 C 14,2 C 81 % 1017,2 hPa 0,0 l/m 12,9 km/h (3 Bft) W-NW 292 0 min 0,000 mm 0 W/m 10,5 C 10,4 C 24,1 km/h (4 Bft) 97 %
06.09.2017 22:20 13,4 C 13,4 C 13,7 C 82 % 1017,3 hPa 0,0 l/m 8,0 km/h (2 Bft) W-NW 292 0 min 0,000 mm 0 W/m 10,4 C 12,4 C 19,3 km/h (3 Bft) 98 %
06.09.2017 22:30 13,4 C 13,3 C 13,5 C 82 % 1017,2 hPa 0,0 l/m 9,7 km/h (2 Bft) W-NW 292 0 min 0,000 mm 0 W/m 10,4 C 11,5 C 25,7 km/h (4 Bft) 97 %
06.09.2017 22:40 13,4 C 13,3 C 13,4 C 82 % 1017,1 hPa 0,0 l/m 8,0 km/h (2 Bft) W-NW 292 0 min 0,000 mm 0 W/m 10,4 C 12,4 C 20,9 km/h (4 Bft) 98 %
06.09.2017 22:50 13,4 C 13,4 C 13,4 C 81 % 1017,1 hPa 0,0 l/m 8,0 km/h (2 Bft) NW 315 0 min 0,000 mm 0 W/m 10,2 C 12,4 C 20,9 km/h (4 Bft) 98 %
06.09.2017 23:00 13,6 C 13,4 C 13,6 C 81 % 1017,3 hPa 0,0 l/m 9,7 km/h (2 Bft) W-NW 292 0 min 0,025 mm 0 W/m 10,4 C 11,7 C 20,9 km/h (4 Bft) 97 %
06.09.2017 23:10 13,6 C 13,6 C 13,6 C 81 % 1017,4 hPa 0,0 l/m 12,9 km/h (3 Bft) W 270 0 min 0,000 mm 0 W/m 10,4 C 10,3 C 24,1 km/h (4 Bft) 98 %
06.09.2017 23:20 13,6 C 13,6 C 13,7 C 81 % 1017,3 hPa 0,0 l/m 12,9 km/h (3 Bft) W 270 0 min 0,000 mm 0 W/m 10,4 C 10,3 C 20,9 km/h (4 Bft) 97 %
06.09.2017 23:30 13,4 C 13,4 C 13,6 C 82 % 1017,3 hPa 0,0 l/m 9,7 km/h (2 Bft) W-NW 292 0 min 0,000 mm 0 W/m 10,4 C 11,5 C 20,9 km/h (4 Bft) 98 %
06.09.2017 23:40 13,2 C 13,2 C 13,4 C 82 % 1017,0 hPa 0,0 l/m 8,0 km/h (2 Bft) W-NW 292 0 min 0,000 mm 0 W/m 10,2 C 12,2 C 16,1 km/h (3 Bft) 97 %
06.09.2017 23:50 13,1 C 13,1 C 13,2 C 82 % 1017,2 hPa 0,0 l/m 8,0 km/h (2 Bft) W-NW 292 0 min 0,000 mm 0 W/m 10,1 C 12,1 C 14,5 km/h (3 Bft) 97 %
_ Min-Zeit 23:50 23:50 23:50 15:20 12:50 - 00:40 - - - - - 20:40 23:10 01:30 10:10
Minimum _ 13,1 C 13,1 C 13,2 C 54 % 1014,7 hPa - 0,0 km/h (0 Bft) - - - - - 8,7 C 10,3 C 0,0 km/h (0 Bft) 87 %
_ Max-Zeit 13:20 13:20 13:20 08:50 21:30 01:10 14:30 - - 08:50 15:00 13:50 12:40 15:30 14:30 00:00
Maximum _ 21,8 C 21,6 C 21,8 C 91 % 1017,5 hPa 0,6 l/m 22,5 km/h
W (4 Bft)
- - 10 min 0,533 mm 1042 W/m 16,6 C 19,3 C 49,9 km/h
W-NW (6 Bft)
100 %
Durchschnitt _ 17,7 C 17,6 C 17,8 C 77 % 1015,8 hPa #1,6 l/m 9,0 km/h (2 Bft) W - #7:30 h #2,921 mm 358 W/m 13,4 C 16,3 C 20,7 km/h (4 Bft) 99 %
PRIVATE WETTERSTATION BILLIGHEIM-ALLFELD - www.neckar-odenwald-wetter.de - Holger Sonntag